Time;durP1;ratioP1;P1;durP2;ratioP2;P2;SDS_P1;SDS_P2;PMS_P1;PMS_P2;Temp;Humidity;BMP_temperature;BMP_pressure;BME280_temperature;BME280_humidity;BME280_pressure;Samples;Min_cycle;Max_cycle;Signal;HPM_P1;HPM_P2
2021/12/20 00:02:04;;;;;;;1.13;1.13;;;4.10;99.90;;;;;;5256801;28;20036;-75
2021/12/20 00:04:39;;;;;;;0.55;0.55;;;4.10;99.90;;;;;;5249418;28;20048;-75
2021/12/20 00:07:11;;;;;;;0.50;0.50;;;4.10;99.90;;;;;;5244671;28;20028;-75
2021/12/20 00:09:42;;;;;;;0.50;0.50;;;4.10;99.90;;;;;;5219744;28;20036;-75
2021/12/20 00:12:17;;;;;;;1.55;1.35;;;4.10;99.90;;;;;;5236888;28;20593;-75
2021/12/20 00:14:48;;;;;;;0.60;0.60;;;4.00;99.90;;;;;;5256937;28;20567;-75
2021/12/20 00:17:27;;;;;;;0.50;0.50;;;4.00;99.90;;;;;;5263231;28;20066;-75
2021/12/20 00:20:00;;;;;;;0.45;0.45;;;4.10;99.90;;;;;;5262018;28;20047;-74
2021/12/20 00:22:41;;;;;;;0.50;0.50;;;4.00;99.90;;;;;;5244393;28;20458;-74
2021/12/20 00:25:12;;;;;;;0.80;0.80;;;4.00;99.90;;;;;;5261880;28;20035;-74
2021/12/20 00:27:46;;;;;;;0.60;0.60;;;4.10;99.90;;;;;;5262544;28;20035;-74
2021/12/20 00:30:17;;;;;;;0.65;0.65;;;4.10;99.90;;;;;;5244300;28;20069;-75
2021/12/20 00:32:51;;;;;;;0.45;0.45;;;4.00;99.90;;;;;;5263932;28;20245;-74
2021/12/20 00:35:25;;;;;;;0.40;0.40;;;4.20;99.90;;;;;;5263464;28;20095;-74
2021/12/20 00:40:51;;;;;;;0.60;0.60;;;4.20;99.90;;;;;;5261672;28;20462;-75
2021/12/20 00:43:27;;;;;;;1.30;1.27;;;4.30;99.90;;;;;;5244392;28;20066;-75
2021/12/20 00:45:58;;;;;;;0.55;0.55;;;4.30;99.90;;;;;;5261976;28;20047;-75
2021/12/20 00:48:32;;;;;;;0.77;0.77;;;4.20;99.90;;;;;;5261740;28;20073;-75
2021/12/20 00:51:08;;;;;;;0.85;0.85;;;4.20;99.90;;;;;;5244245;28;20089;-75
2021/12/20 00:53:39;;;;;;;1.10;1.10;;;4.20;99.90;;;;;;5261337;28;20036;-74
2021/12/20 00:56:14;;;;;;;0.73;0.73;;;4.20;99.90;;;;;;5260203;28;20480;-75
2021/12/20 00:58:45;;;;;;;0.47;0.47;;;4.20;99.90;;;;;;5244450;28;20099;-75
2021/12/20 01:01:22;;;;;;;0.90;0.90;;;4.10;99.90;;;;;;5260613;28;20032;-75
2021/12/20 01:03:58;;;;;;;0.65;0.65;;;4.10;99.90;;;;;;5259503;28;20496;-75
2021/12/20 01:06:31;;;;;;;0.50;0.50;;;4.00;99.90;;;;;;5251141;28;20059;-75
2021/12/20 01:09:03;;;;;;;0.75;0.75;;;4.00;99.90;;;;;;5260963;28;20043;-75
2021/12/20 01:11:40;;;;;;;0.45;0.45;;;4.00;99.90;;;;;;5243682;28;20095;-75
2021/12/20 01:14:21;;;;;;;0.85;0.85;;;3.90;99.90;;;;;;5260201;28;20108;-75
2021/12/20 01:17:01;;;;;;;0.50;0.50;;;3.80;99.90;;;;;;5260321;28;20059;-74
2021/12/20 01:19:39;;;;;;;0.32;0.32;;;3.60;99.90;;;;;;5244933;28;20024;-74
2021/12/20 01:22:10;;;;;;;0.65;0.65;;;3.60;99.90;;;;;;5260296;28;20274;-75
2021/12/20 01:24:44;;;;;;;0.93;0.93;;;3.60;99.90;;;;;;5260284;28;20028;-75
2021/12/20 01:27:18;;;;;;;0.50;0.50;;;3.60;99.90;;;;;;5260116;28;20044;-75
2021/12/20 01:29:51;;;;;;;0.57;0.57;;;3.50;99.90;;;;;;5259526;28;20071;-74
2021/12/20 01:32:23;;;;;;;0.50;0.50;;;3.60;99.90;;;;;;5257037;28;20107;-75
2021/12/20 01:34:57;;;;;;;0.57;0.57;;;3.50;99.90;;;;;;5260109;28;20046;-75
2021/12/20 01:37:31;;;;;;;2.45;2.25;;;3.60;99.90;;;;;;5261275;28;20040;-75
2021/12/20 01:40:06;;;;;;;1.00;1.00;;;3.40;99.90;;;;;;5243378;28;20031;-75
2021/12/20 01:42:40;;;;;;;1.48;1.45;;;3.40;99.90;;;;;;5260038;28;20035;-75
2021/12/20 01:45:23;;;;;;;0.90;0.90;;;3.30;99.90;;;;;;5260894;28;20035;-75
2021/12/20 01:48:08;;;;;;;0.40;0.40;;;3.20;99.90;;;;;;5261507;28;20104;-74
2021/12/20 01:53:25;;;;;;;0.68;0.68;;;2.70;99.90;;;;;;5259434;28;20040;-76
2021/12/20 01:55:59;;;;;;;0.70;0.70;;;2.40;99.90;;;;;;5257892;28;20024;-75
2021/12/20 01:58:31;;;;;;;0.50;0.50;;;1.90;99.90;;;;;;5258573;28;20129;-74
2021/12/20 02:03:43;;;;;;;0.40;0.40;;;1.80;99.90;;;;;;5239799;28;20045;-75
2021/12/20 02:06:29;;;;;;;0.50;0.50;;;1.90;99.90;;;;;;5249036;28;20059;-75
2021/12/20 02:09:07;;;;;;;0.38;0.38;;;2.00;99.90;;;;;;5238463;28;20462;-74
2021/12/20 02:11:42;;;;;;;1.40;1.40;;;2.00;99.90;;;;;;5238954;28;20085;-74
2021/12/20 02:14:23;;;;;;;0.60;0.60;;;2.00;99.90;;;;;;5254380;28;20036;-74
2021/12/20 02:16:54;;;;;;;0.55;0.55;;;1.90;99.90;;;;;;5270145;28;20031;-75
2021/12/20 02:19:27;;;;;;;0.43;0.43;;;1.80;99.90;;;;;;5258823;28;20020;-74
2021/12/20 02:22:01;;;;;;;0.40;0.40;;;1.70;99.90;;;;;;5259041;28;20043;-75
2021/12/20 02:24:56;;;;;;;0.45;0.45;;;1.50;99.90;;;;;;5259649;28;20027;-74
2021/12/20 02:27:30;;;;;;;0.60;0.60;;;1.40;99.90;;;;;;5257570;28;20031;-74
2021/12/20 02:30:15;;;;;;;0.50;0.50;;;1.30;99.90;;;;;;5240690;28;20317;-75
2021/12/20 02:36:58;;;;;;;0.45;0.45;;;1.10;99.90;;;;;;5258688;28;20032;-75
2021/12/20 02:38:51;;;;;;;0.40;0.40;;;1.10;99.90;;;;;;5246170;28;20035;-75
2021/12/20 02:41:32;;;;;;;0.70;0.70;;;1.10;99.90;;;;;;5258242;28;20028;-74
2021/12/20 02:44:10;;;;;;;0.60;0.60;;;1.10;99.90;;;;;;5256608;28;20187;-75
2021/12/20 02:49:21;;;;;;;0.50;0.50;;;1.20;99.90;;;;;;5258314;28;20032;-76
2021/12/20 02:52:02;;;;;;;0.43;0.43;;;1.10;99.90;;;;;;5240622;28;20043;-75
2021/12/20 02:54:36;;;;;;;0.38;0.38;;;1.10;99.90;;;;;;5257482;28;20456;-74
2021/12/20 02:57:15;;;;;;;0.60;0.60;;;1.30;99.90;;;;;;5255027;28;20035;-74
2021/12/20 02:59:49;;;;;;;0.55;0.55;;;1.50;99.90;;;;;;5255518;28;20099;-74
2021/12/20 03:02:25;;;;;;;0.80;0.80;;;1.80;99.90;;;;;;5257276;28;20036;-74
2021/12/20 03:04:59;;;;;;;0.50;0.50;;;1.80;99.90;;;;;;5237229;28;20051;-74
2021/12/20 03:07:41;;;;;;;0.60;0.60;;;1.80;99.90;;;;;;5228534;28;20588;-74
2021/12/20 03:10:19;;;;;;;0.70;0.70;;;1.90;99.90;;;;;;5242858;28;20027;-74
2021/12/20 03:12:53;;;;;;;0.60;0.60;;;1.90;99.90;;;;;;5259357;28;20082;-75
2021/12/20 03:15:29;;;;;;;0.40;0.40;;;2.10;99.90;;;;;;5241386;28;20039;-75
2021/12/20 03:18:00;;;;;;;0.40;0.40;;;2.10;99.90;;;;;;5274803;28;20039;-76
2021/12/20 03:20:33;;;;;;;0.80;0.80;;;2.20;99.90;;;;;;5258629;28;20031;-74
2021/12/20 03:23:06;;;;;;;0.50;0.50;;;2.20;99.90;;;;;;5259498;28;20032;-74
2021/12/20 03:25:36;;;;;;;0.40;0.40;;;2.30;99.90;;;;;;5240585;28;20087;-74
2021/12/20 03:28:13;;;;;;;0.40;0.40;;;2.20;99.90;;;;;;5239738;28;20035;-74
2021/12/20 03:30:44;;;;;;;0.50;0.50;;;2.10;99.90;;;;;;5223692;28;20588;-74
2021/12/20 03:33:15;;;;;;;0.60;0.60;;;2.10;99.90;;;;;;5240672;28;20095;-74
2021/12/20 03:35:46;;;;;;;0.45;0.45;;;2.10;99.90;;;;;;5257956;28;20097;-74
2021/12/20 03:38:20;;;;;;;0.90;0.90;;;2.10;99.90;;;;;;5258223;28;20035;-74
2021/12/20 03:40:54;;;;;;;0.73;0.73;;;2.10;99.90;;;;;;5241147;28;20123;-76
2021/12/20 03:43:31;;;;;;;0.45;0.45;;;2.10;99.90;;;;;;5256536;28;20036;-74
2021/12/20 03:46:10;;;;;;;0.50;0.50;;;2.10;99.90;;;;;;5257040;28;20051;-74
2021/12/20 03:48:44;;;;;;;0.50;0.50;;;2.10;99.90;;;;;;5239942;28;20068;-75
2021/12/20 03:51:15;;;;;;;0.70;0.70;;;2.20;99.90;;;;;;5223529;28;20455;-74
2021/12/20 03:53:48;;;;;;;0.50;0.50;;;2.10;99.90;;;;;;5257426;28;20086;-74
2021/12/20 03:56:21;;;;;;;0.70;0.70;;;2.10;99.90;;;;;;5242410;28;20031;-74
2021/12/20 03:58:57;;;;;;;0.73;0.73;;;2.20;99.90;;;;;;5246163;28;20031;-74
2021/12/20 04:01:34;;;;;;;0.38;0.38;;;2.20;99.90;;;;;;5259939;28;20036;-74
2021/12/20 04:04:13;;;;;;;0.60;0.60;;;2.20;99.90;;;;;;5258343;28;20023;-74
2021/12/20 04:06:56;;;;;;;0.43;0.43;;;2.30;99.90;;;;;;5247254;28;20060;-74
2021/12/20 04:09:32;;;;;;;0.77;0.77;;;2.30;99.90;;;;;;5257406;28;20023;-74
2021/12/20 04:12:03;;;;;;;0.57;0.57;;;2.40;99.90;;;;;;5253177;28;20024;-75
2021/12/20 04:14:34;;;;;;;0.60;0.60;;;2.40;99.90;;;;;;5239476;28;20044;-75
2021/12/20 04:17:07;;;;;;;0.55;0.55;;;2.30;99.90;;;;;;5258555;28;20389;-75
2021/12/20 04:19:41;;;;;;;1.05;1.05;;;2.40;99.90;;;;;;5259039;28;20385;-75
2021/12/20 04:22:15;;;;;;;0.50;0.50;;;2.30;99.90;;;;;;5258146;28;20230;-73
2021/12/20 04:24:49;;;;;;;0.70;0.70;;;2.30;99.90;;;;;;5250864;28;20031;-76
2021/12/20 04:27:25;;;;;;;0.60;0.60;;;2.30;99.90;;;;;;5258001;28;20051;-75
2021/12/20 04:30:08;;;;;;;0.57;0.57;;;2.30;99.90;;;;;;5257948;28;20042;-74
2021/12/20 04:32:48;;;;;;;0.50;0.50;;;2.40;99.90;;;;;;5236706;28;20077;-74
2021/12/20 04:35:25;;;;;;;0.50;0.50;;;2.30;99.90;;;;;;5257042;28;20040;-74
2021/12/20 04:38:00;;;;;;;0.40;0.40;;;2.40;99.90;;;;;;5258794;28;20032;-74
2021/12/20 04:40:33;;;;;;;0.73;0.73;;;2.30;99.90;;;;;;5258829;28;20034;-74
2021/12/20 04:43:07;;;;;;;0.40;0.40;;;2.30;99.90;;;;;;5257544;28;20052;-74
2021/12/20 04:45:43;;;;;;;0.63;0.63;;;2.40;99.90;;;;;;5257943;28;20052;-74
2021/12/20 04:48:25;;;;;;;0.47;0.47;;;2.30;99.90;;;;;;5257696;28;20077;-73
2021/12/20 04:50:58;;;;;;;0.50;0.50;;;2.30;99.90;;;;;;5257876;28;20091;-74
2021/12/20 04:53:32;;;;;;;0.55;0.55;;;2.30;99.90;;;;;;5259043;28;20035;-75
2021/12/20 04:56:06;;;;;;;0.70;0.70;;;2.30;99.90;;;;;;5258720;28;20073;-73
2021/12/20 04:58:45;;;;;;;0.50;0.50;;;2.20;99.90;;;;;;5256116;28;20569;-73
2021/12/20 05:01:19;;;;;;;0.60;0.60;;;2.20;99.90;;;;;;5260271;28;20016;-74
2021/12/20 05:03:53;;;;;;;0.60;0.60;;;2.20;99.90;;;;;;5261192;28;20032;-74
2021/12/20 05:06:24;;;;;;;0.90;0.90;;;2.10;99.90;;;;;;5265037;28;20092;-74
2021/12/20 05:08:56;;;;;;;0.50;0.50;;;2.20;99.90;;;;;;5259731;28;20097;-74
2021/12/20 05:11:34;;;;;;;0.57;0.57;;;2.10;99.90;;;;;;5260504;28;20028;-74
2021/12/20 05:14:09;;;;;;;0.47;0.47;;;2.10;99.90;;;;;;5260703;28;20031;-74
2021/12/20 05:16:40;;;;;;;0.65;0.65;;;2.10;99.90;;;;;;5244058;28;20078;-73
2021/12/20 05:19:17;;;;;;;0.47;0.47;;;2.10;99.90;;;;;;5260227;28;20223;-73
2021/12/20 05:21:50;;;;;;;0.50;0.50;;;2.10;99.90;;;;;;5259952;28;20020;-73
2021/12/20 05:24:23;;;;;;;0.50;0.50;;;2.10;99.90;;;;;;5267811;28;20077;-73
2021/12/20 05:26:57;;;;;;;0.80;0.80;;;2.10;99.90;;;;;;5262248;28;20412;-73
2021/12/20 05:29:31;;;;;;;0.60;0.60;;;2.10;99.90;;;;;;5263070;28;20032;-74
2021/12/20 05:32:05;;;;;;;0.70;0.70;;;2.10;99.90;;;;;;5246254;28;20027;-74
2021/12/20 05:34:37;;;;;;;0.77;0.77;;;2.10;99.90;;;;;;5253914;28;20416;-74
2021/12/20 05:37:12;;;;;;;0.73;0.73;;;2.10;99.90;;;;;;5260973;28;20067;-74
2021/12/20 05:39:44;;;;;;;0.60;0.60;;;2.10;99.90;;;;;;5243595;28;20042;-73
2021/12/20 05:42:18;;;;;;;0.60;0.60;;;2.00;99.90;;;;;;5259463;28;20081;-73
2021/12/20 05:44:54;;;;;;;0.70;0.70;;;2.20;99.90;;;;;;5259981;28;20059;-73
2021/12/20 05:47:27;;;;;;;0.57;0.57;;;2.20;99.90;;;;;;5226603;28;20035;-74
2021/12/20 05:49:58;;;;;;;0.50;0.50;;;2.20;99.90;;;;;;5240503;28;20027;-74
2021/12/20 05:52:32;;;;;;;0.80;0.80;;;2.20;99.90;;;;;;5258266;28;20040;-74
2021/12/20 05:55:05;;;;;;;0.98;0.98;;;2.20;99.90;;;;;;5259575;28;20053;-74
2021/12/20 05:57:42;;;;;;;0.60;0.60;;;2.20;99.90;;;;;;5242073;28;20044;-74
2021/12/20 06:00:18;;;;;;;0.68;0.68;;;2.20;99.90;;;;;;5258983;28;20024;-73
2021/12/20 06:02:51;;;;;;;0.70;0.70;;;2.10;99.90;;;;;;5260552;28;20028;-74
2021/12/20 06:05:25;;;;;;;0.70;0.70;;;2.20;99.90;;;;;;5259508;28;20093;-74
2021/12/20 06:08:01;;;;;;;0.82;0.82;;;2.20;99.90;;;;;;5226243;28;20056;-74
2021/12/20 06:10:39;;;;;;;0.50;0.50;;;2.20;99.90;;;;;;5235489;28;20486;-74
2021/12/20 06:13:10;;;;;;;0.73;0.73;;;2.20;99.90;;;;;;5259155;28;20027;-73
2021/12/20 06:15:44;;;;;;;0.70;0.70;;;2.10;99.90;;;;;;5258378;28;20024;-74
2021/12/20 06:18:15;;;;;;;0.50;0.50;;;2.10;99.90;;;;;;5257717;28;20035;-76
2021/12/20 06:20:48;;;;;;;0.50;0.50;;;2.20;99.90;;;;;;5257574;28;20302;-74
2021/12/20 06:23:20;;;;;;;0.52;0.52;;;2.20;99.90;;;;;;5238610;28;20609;-74
2021/12/20 06:25:53;;;;;;;0.50;0.50;;;2.10;99.90;;;;;;5254878;28;20637;-74
2021/12/20 06:28:30;;;;;;;0.50;0.50;;;2.10;99.90;;;;;;5258581;28;20028;-73
2021/12/20 06:31:03;;;;;;;0.63;0.63;;;2.10;99.90;;;;;;5277170;28;20047;-73
2021/12/20 06:33:36;;;;;;;0.40;0.40;;;2.20;99.90;;;;;;5260252;28;20020;-73
2021/12/20 06:36:07;;;;;;;0.60;0.60;;;2.20;99.90;;;;;;5243901;28;20101;-74
2021/12/20 06:38:45;;;;;;;0.52;0.52;;;2.20;99.90;;;;;;5261951;28;20048;-73
2021/12/20 06:41:23;;;;;;;0.73;0.73;;;2.30;99.90;;;;;;5261829;28;20051;-73
2021/12/20 06:43:53;;;;;;;0.50;0.50;;;2.30;99.90;;;;;;5260771;28;20095;-74
2021/12/20 06:46:31;;;;;;;0.40;0.40;;;2.30;99.90;;;;;;5255780;28;20036;-73
2021/12/20 06:49:11;;;;;;;0.40;0.40;;;2.30;99.90;;;;;;5257226;28;20081;-73
2021/12/20 06:51:45;;;;;;;0.60;0.60;;;2.50;99.90;;;;;;5239484;28;20367;-73
2021/12/20 06:54:19;;;;;;;0.60;0.60;;;2.60;99.90;;;;;;5251142;28;20134;-74
2021/12/20 06:56:56;;;;;;;0.47;0.47;;;2.50;99.90;;;;;;5260090;28;20032;-73
2021/12/20 06:59:33;;;;;;;0.70;0.70;;;2.40;99.90;;;;;;5244783;28;20027;-74
2021/12/20 07:02:07;;;;;;;0.73;0.73;;;2.30;99.90;;;;;;5260717;28;20074;-74
2021/12/20 07:04:40;;;;;;;0.75;0.75;;;2.30;99.90;;;;;;5220716;28;20622;-74
2021/12/20 07:07:16;;;;;;;0.50;0.50;;;2.40;99.90;;;;;;5255362;28;20043;-73
2021/12/20 07:09:47;;;;;;;0.50;0.50;;;2.40;99.90;;;;;;5259783;28;20033;-74
2021/12/20 07:12:20;;;;;;;1.75;1.65;;;2.40;99.90;;;;;;5251570;28;20020;-74
2021/12/20 07:14:53;;;;;;;0.82;0.82;;;2.40;99.90;;;;;;5245680;28;20324;-73
2021/12/20 07:18:23;;;;;;;1.33;1.33;;;2.50;99.90;;;;;;5233163;28;20164;-73
2021/12/20 07:20:54;;;;;;;0.70;0.70;;;2.40;99.90;;;;;;5251392;28;20107;-75
2021/12/20 07:23:24;;;;;;;0.80;0.80;;;2.40;99.90;;;;;;5238852;28;20067;-75
2021/12/20 07:25:55;;;;;;;0.40;0.40;;;2.40;99.90;;;;;;5266297;28;20043;-75
2021/12/20 07:28:31;;;;;;;0.75;0.75;;;2.40;99.90;;;;;;5250492;28;20113;-75
2021/12/20 07:31:12;;;;;;;0.68;0.68;;;2.40;99.90;;;;;;5230402;28;20032;-74
2021/12/20 07:33:44;;;;;;;0.60;0.60;;;2.40;99.90;;;;;;5260036;28;20032;-75
2021/12/20 07:36:21;;;;;;;0.50;0.50;;;2.40;99.90;;;;;;5259925;28;20400;-74
2021/12/20 07:38:52;;;;;;;0.70;0.70;;;2.40;99.90;;;;;;5259559;28;20032;-74
2021/12/20 07:41:25;;;;;;;0.60;0.60;;;2.40;99.90;;;;;;5273635;28;20059;-74
2021/12/20 07:43:56;;;;;;;0.70;0.70;;;2.50;99.90;;;;;;5242386;28;20351;-74
2021/12/20 07:46:32;;;;;;;0.50;0.50;;;2.50;99.90;;;;;;5254022;28;20043;-74
2021/12/20 07:49:08;;;;;;;0.55;0.55;;;2.50;99.90;;;;;;5257449;28;20318;-75
2021/12/20 07:51:41;;;;;;;0.60;0.60;;;2.60;99.90;;;;;;5255668;28;20073;-75
2021/12/20 07:54:18;;;;;;;0.60;0.60;;;2.60;99.90;;;;;;5256050;28;20035;-75
2021/12/20 07:56:49;;;;;;;0.60;0.60;;;2.60;99.90;;;;;;5223894;28;20267;-75
2021/12/20 07:59:19;;;;;;;0.70;0.70;;;2.60;99.90;;;;;;5251367;28;20063;-74
2021/12/20 08:01:56;;;;;;;0.70;0.70;;;2.70;99.90;;;;;;5241571;28;20032;-74
2021/12/20 08:04:31;;;;;;;0.40;0.40;;;2.70;99.90;;;;;;5249638;28;20143;-75
2021/12/20 08:07:05;;;;;;;0.60;0.60;;;2.70;99.90;;;;;;5252414;28;20058;-75
2021/12/20 08:09:38;;;;;;;0.57;0.57;;;2.70;99.90;;;;;;5239476;28;20036;-75
2021/12/20 08:12:10;;;;;;;0.70;0.70;;;2.80;99.90;;;;;;5255791;28;20537;-75
2021/12/20 08:14:45;;;;;;;0.60;0.60;;;2.80;99.90;;;;;;5254207;28;20042;-74
2021/12/20 08:17:15;;;;;;;0.57;0.57;;;2.80;99.90;;;;;;5257428;28;20031;-74
2021/12/20 08:19:49;;;;;;;0.45;0.45;;;2.80;99.90;;;;;;5254580;28;20365;-75
2021/12/20 08:22:25;;;;;;;0.60;0.60;;;2.80;99.90;;;;;;5257048;28;20110;-75
2021/12/20 08:24:58;;;;;;;0.80;0.80;;;2.90;99.90;;;;;;5256756;28;20047;-75
2021/12/20 08:27:34;;;;;;;0.40;0.40;;;2.90;99.90;;;;;;5258006;28;20027;-74
2021/12/20 08:30:09;;;;;;;0.50;0.50;;;2.90;99.90;;;;;;5257411;28;20035;-75
2021/12/20 08:32:40;;;;;;;0.47;0.47;;;2.90;99.90;;;;;;5255404;28;20044;-75
2021/12/20 08:35:16;;;;;;;0.40;0.40;;;2.90;99.90;;;;;;5257740;28;20044;-74
2021/12/20 08:37:50;;;;;;;0.63;0.63;;;2.90;99.90;;;;;;5261154;28;20040;-75
2021/12/20 08:40:22;;;;;;;0.60;0.60;;;2.90;99.90;;;;;;5261396;28;20050;-75
2021/12/20 08:42:58;;;;;;;0.52;0.52;;;3.00;99.90;;;;;;5259628;28;20577;-74
2021/12/20 08:45:28;;;;;;;0.40;0.40;;;3.00;99.90;;;;;;5244426;28;20103;-73
2021/12/20 08:48:03;;;;;;;0.50;0.50;;;3.00;99.90;;;;;;5261604;28;20904;-73
2021/12/20 08:50:37;;;;;;;0.80;0.80;;;3.10;99.90;;;;;;5210804;28;20146;-72
2021/12/20 08:53:10;;;;;;;0.98;0.98;;;3.10;99.90;;;;;;5254307;28;20047;-72
2021/12/20 08:55:43;;;;;;;0.80;0.80;;;3.10;99.90;;;;;;5222962;28;20029;-72
2021/12/20 08:58:14;;;;;;;0.60;0.60;;;3.10;99.90;;;;;;5241323;28;20355;-73
2021/12/20 09:00:48;;;;;;;0.80;0.80;;;3.20;99.90;;;;;;5239971;28;20038;-73
2021/12/20 09:03:22;;;;;;;0.68;0.68;;;3.20;99.90;;;;;;5241618;28;20048;-73
2021/12/20 09:05:56;;;;;;;1.00;1.00;;;3.20;99.90;;;;;;5264175;28;20366;-73
2021/12/20 09:08:28;;;;;;;0.75;0.75;;;3.20;99.90;;;;;;5243090;28;20032;-74
2021/12/20 09:11:02;;;;;;;0.85;0.85;;;3.30;99.90;;;;;;5256545;28;20089;-73
2021/12/20 09:13:33;;;;;;;0.73;0.73;;;3.30;99.90;;;;;;5261249;28;20016;-74
2021/12/20 09:16:04;;;;;;;0.57;0.57;;;3.30;99.90;;;;;;5260305;28;20145;-74
2021/12/20 09:18:34;;;;;;;0.52;0.52;;;3.30;99.90;;;;;;5261231;28;20040;-75
2021/12/20 09:21:11;;;;;;;0.50;0.50;;;3.40;99.90;;;;;;5260488;28;20095;-74
2021/12/20 09:23:43;;;;;;;0.55;0.55;;;3.40;99.90;;;;;;5260511;28;20062;-74
2021/12/20 09:26:17;;;;;;;0.93;0.93;;;3.40;99.90;;;;;;5260714;28;20152;-73
2021/12/20 09:28:51;;;;;;;0.50;0.50;;;3.50;99.90;;;;;;5260443;28;20115;-73
2021/12/20 09:31:22;;;;;;;0.68;0.68;;;3.50;99.90;;;;;;5259294;28;20371;-73
2021/12/20 09:33:56;;;;;;;0.70;0.70;;;3.40;99.90;;;;;;5259009;28;20035;-73
2021/12/20 09:36:32;;;;;;;0.40;0.40;;;3.60;99.90;;;;;;5242177;28;20032;-72
2021/12/20 09:39:10;;;;;;;0.50;0.50;;;3.50;99.90;;;;;;5257967;28;20124;-75
2021/12/20 09:44:23;;;;;;;0.60;0.60;;;3.50;99.90;;;;;;5262895;28;20385;-74
2021/12/20 09:47:00;;;;;;;0.60;0.60;;;3.50;99.90;;;;;;5273715;28;20043;-74
2021/12/20 09:49:32;;;;;;;0.40;0.40;;;3.60;99.90;;;;;;5262892;28;20337;-74
2021/12/20 09:52:03;;;;;;;0.70;0.70;;;3.70;99.90;;;;;;5262520;28;20099;-73
2021/12/20 09:54:34;;;;;;;0.50;0.50;;;3.70;99.90;;;;;;5262468;28;20039;-74
2021/12/20 09:57:10;;;;;;;0.80;0.80;;;3.70;99.90;;;;;;5255527;28;20054;-72
2021/12/20 09:59:44;;;;;;;0.68;0.68;;;3.80;99.90;;;;;;5261005;28;20079;-72
2021/12/20 10:02:20;;;;;;;;;;;3.90;99.90;;;;;;5244901;28;20028;-73
2021/12/20 10:04:57;;;;;;;0.50;0.50;;;3.70;99.90;;;;;;5245821;28;19936;-73
2021/12/20 10:07:32;;;;;;;0.60;0.60;;;3.90;99.90;;;;;;5269399;28;20590;-72
2021/12/20 10:10:12;;;;;;;0.50;0.50;;;4.20;99.90;;;;;;5260147;28;20039;-73
2021/12/20 10:12:49;;;;;;;0.60;0.60;;;4.30;99.90;;;;;;5239671;28;20110;-74
2021/12/20 10:15:23;;;;;;;0.75;0.75;;;4.20;99.90;;;;;;5260850;28;20024;-74
2021/12/20 10:18:05;;;;;;;0.75;0.75;;;4.40;99.90;;;;;;5238153;28;20337;-73
2021/12/20 10:20:39;;;;;;;0.52;0.52;;;4.60;99.90;;;;;;5223076;28;20067;-74
2021/12/20 10:23:19;;;;;;;1.10;1.10;;;4.70;99.90;;;;;;5241735;28;20032;-73
2021/12/20 10:26:20;;;;;;;0.60;0.60;;;4.60;99.90;;;;;;5276411;28;20751;-73
2021/12/20 10:28:55;;;;;;;0.60;0.60;;;4.70;99.90;;;;;;5263268;28;20070;-73
2021/12/20 10:31:27;;;;;;;0.52;0.52;;;4.60;99.90;;;;;;5260684;28;20028;-74
2021/12/20 10:34:03;;;;;;;0.60;0.60;;;4.60;99.90;;;;;;5245881;28;20297;-74
2021/12/20 10:36:35;;;;;;;0.57;0.57;;;4.70;99.90;;;;;;5253951;28;20087;-73
2021/12/20 10:39:09;;;;;;;0.60;0.60;;;4.60;99.90;;;;;;5258541;28;20207;-73
2021/12/20 10:41:46;;;;;;;0.88;0.88;;;5.10;99.90;;;;;;5250874;28;20044;-75
2021/12/20 10:44:24;;;;;;;0.70;0.70;;;5.50;99.90;;;;;;5251917;28;20036;-73
2021/12/20 10:47:01;;;;;;;0.77;0.77;;;5.30;99.90;;;;;;5259387;28;20270;-74
2021/12/20 10:49:34;;;;;;;0.40;0.40;;;5.80;99.90;;;;;;5258459;28;20047;-73
2021/12/20 10:52:09;;;;;;;2.30;2.20;;;5.80;99.90;;;;;;5257746;28;20043;-73
2021/12/20 10:54:43;;;;;;;;;;;5.60;99.90;;;;;;5261066;28;20436;-74
2021/12/20 10:57:28;;;;;;;0.70;0.70;;;5.80;99.90;;;;;;5242020;28;19979;-73
2021/12/20 11:00:22;;;;;;;0.70;0.70;;;5.60;99.90;;;;;;5238244;28;20108;-73
2021/12/20 11:11:25;;;;;;;0.80;0.80;;;5.90;99.90;;;;;;5252277;28;20245;-72
2021/12/20 11:13:59;;;;;;;0.60;0.60;;;5.10;99.90;;;;;;5242540;28;20095;-74
2021/12/20 11:16:49;;;;;;;0.70;0.70;;;4.70;99.90;;;;;;5242041;28;20392;-74
2021/12/20 11:19:20;;;;;;;0.68;0.68;;;4.60;99.90;;;;;;5260454;28;20027;-74
2021/12/20 11:22:07;;;;;;;0.70;0.70;;;5.00;99.90;;;;;;5260247;28;20079;-74
2021/12/20 11:24:54;;;;;;;0.70;0.70;;;4.70;99.90;;;;;;5241388;28;20075;-73
2021/12/20 11:27:31;;;;;;;0.90;0.90;;;5.10;99.90;;;;;;5224467;28;20298;-73
2021/12/20 11:30:16;;;;;;;0.60;0.60;;;4.80;99.90;;;;;;5239056;28;20024;-75
2021/12/20 11:32:50;;;;;;;0.68;0.68;;;4.70;99.90;;;;;;5263896;28;20042;-75
2021/12/20 11:35:26;;;;;;;0.40;0.40;;;4.40;99.90;;;;;;5240169;28;20239;-73
2021/12/20 11:38:01;;;;;;;0.68;0.68;;;4.40;99.90;;;;;;5258667;28;20043;-73
2021/12/20 11:40:35;;;;;;;0.60;0.60;;;4.70;99.90;;;;;;5259120;28;20153;-72
2021/12/20 11:43:06;;;;;;;0.98;0.98;;;4.90;99.90;;;;;;5252754;28;20430;-72
2021/12/20 11:45:38;;;;;;;0.88;0.88;;;4.70;99.90;;;;;;5237247;28;20040;-73
2021/12/20 11:48:15;;;;;;;1.10;1.10;;;5.60;99.90;;;;;;5239889;28;20095;-73
2021/12/20 11:50:46;;;;;;;0.85;0.85;;;6.40;99.90;;;;;;5259200;28;20338;-74
2021/12/20 11:53:20;;;;;;;0.75;0.75;;;6.90;99.90;;;;;;5242032;28;20028;-73
2021/12/20 11:55:55;;;;;;;2.45;2.25;;;6.40;99.90;;;;;;5258557;28;20034;-73
2021/12/20 11:58:31;;;;;;;0.80;0.80;;;5.80;99.90;;;;;;5259329;28;20036;-73
2021/12/20 12:01:20;;;;;;;0.68;0.68;;;5.20;99.90;;;;;;5259607;28;20016;-73
2021/12/20 12:03:59;;;;;;;0.60;0.60;;;4.50;99.90;;;;;;5259320;28;20043;-74
2021/12/20 12:06:36;;;;;;;0.80;0.80;;;4.20;99.90;;;;;;5265591;28;20055;-73
2021/12/20 12:09:10;;;;;;;0.90;0.90;;;4.20;99.90;;;;;;5252823;28;20040;-73
2021/12/20 12:11:41;;;;;;;1.02;1.02;;;4.00;99.90;;;;;;5248217;28;20188;-73
2021/12/20 12:14:20;;;;;;;0.75;0.75;;;4.00;99.90;;;;;;5226913;28;20050;-73
2021/12/20 12:17:00;;;;;;;0.50;0.50;;;3.80;99.90;;;;;;5255884;28;20044;-73
2021/12/20 12:19:54;;;;;;;0.65;0.65;;;3.70;99.90;;;;;;5256973;28;20024;-73
2021/12/20 12:22:46;;;;;;;0.52;0.52;;;3.70;99.90;;;;;;5256187;28;20028;-73
2021/12/20 12:25:44;;;;;;;0.90;0.90;;;3.80;99.90;;;;;;5256647;28;20350;-73
2021/12/20 12:28:24;;;;;;;0.70;0.70;;;3.70;99.90;;;;;;5257547;28;20020;-73
2021/12/20 12:31:08;;;;;;;0.75;0.75;;;3.70;99.90;;;;;;5256983;28;20073;-73
2021/12/20 12:33:41;;;;;;;0.80;0.80;;;3.70;99.90;;;;;;5255034;28;20484;-73
2021/12/20 12:36:28;;;;;;;0.60;0.60;;;3.70;99.90;;;;;;5256017;28;20085;-72
2021/12/20 12:39:11;;;;;;;0.50;0.50;;;3.60;99.90;;;;;;5259419;28;20047;-73
2021/12/20 12:41:55;;;;;;;0.57;0.57;;;3.60;99.90;;;;;;5259497;28;20039;-73
2021/12/20 12:44:31;;;;;;;0.70;0.70;;;3.70;99.90;;;;;;5258910;28;20061;-72
2021/12/20 12:47:13;;;;;;;0.70;0.70;;;3.60;99.90;;;;;;5259693;28;20027;-76
2021/12/20 12:49:49;;;;;;;0.80;0.80;;;3.70;99.90;;;;;;5237462;28;20070;-73
2021/12/20 12:52:20;;;;;;;0.77;0.77;;;3.60;99.90;;;;;;5256175;28;20393;-73
2021/12/20 12:54:58;;;;;;;0.57;0.57;;;3.60;99.90;;;;;;5258496;28;20063;-72
2021/12/20 12:57:38;;;;;;;0.80;0.80;;;3.50;99.90;;;;;;5259631;28;20062;-72
2021/12/20 13:00:20;;;;;;;0.80;0.80;;;3.50;99.90;;;;;;5242825;28;20039;-73
2021/12/20 13:03:00;;;;;;;0.57;0.57;;;3.40;99.90;;;;;;5258628;28;20051;-75
2021/12/20 13:05:37;;;;;;;0.65;0.65;;;3.40;99.90;;;;;;5251369;28;20051;-73
2021/12/20 13:08:12;;;;;;;0.70;0.70;;;3.40;99.90;;;;;;5253092;28;20035;-73
2021/12/20 13:10:52;;;;;;;0.40;0.40;;;3.40;99.90;;;;;;5258983;28;20280;-73
2021/12/20 13:13:34;;;;;;;1.35;1.35;;;3.40;99.90;;;;;;5257857;28;20081;-75
2021/12/20 13:16:14;;;;;;;0.90;0.90;;;3.70;99.90;;;;;;5258643;28;20028;-74
2021/12/20 13:18:52;;;;;;;0.63;0.63;;;3.80;99.90;;;;;;5260145;28;20040;-73
2021/12/20 13:21:36;;;;;;;0.40;0.40;;;3.60;99.90;;;;;;5260972;28;20569;-73
2021/12/20 13:24:14;;;;;;;;;;;3.60;99.90;;;;;;5262958;28;20367;-73
2021/12/20 13:26:45;;;;;;;0.60;0.60;;;3.50;99.90;;;;;;5260617;28;20455;-73
2021/12/20 13:29:18;;;;;;;0.57;0.57;;;3.50;99.90;;;;;;5261996;28;20038;-73
2021/12/20 13:31:50;;;;;;;1.40;1.40;;;3.40;99.90;;;;;;5259515;28;20704;-73
2021/12/20 13:34:21;;;;;;;0.60;0.60;;;3.40;99.90;;;;;;5261641;28;20032;-73
2021/12/20 13:36:52;;;;;;;0.60;0.60;;;3.40;99.90;;;;;;5259207;28;20393;-73
2021/12/20 13:39:26;;;;;;;0.60;0.60;;;3.40;99.90;;;;;;5263756;28;20099;-73
2021/12/20 13:42:07;;;;;;;0.65;0.65;;;3.30;99.90;;;;;;5249636;28;20046;-73
2021/12/20 13:44:38;;;;;;;0.70;0.70;;;3.30;99.90;;;;;;5257806;28;20078;-74
2021/12/20 13:47:17;;;;;;;0.90;0.90;;;3.30;99.90;;;;;;5250228;28;20055;-75
2021/12/20 13:49:51;;;;;;;0.70;0.70;;;3.20;99.90;;;;;;5250142;28;20285;-75
2021/12/20 13:52:28;;;;;;;0.50;0.50;;;3.20;99.90;;;;;;5228644;28;20234;-73
2021/12/20 13:55:04;;;;;;;0.50;0.50;;;3.30;99.90;;;;;;5243576;28;20044;-74
2021/12/20 13:57:39;;;;;;;0.55;0.55;;;3.30;99.90;;;;;;5238684;28;20102;-74
2021/12/20 14:00:15;;;;;;;;;;;3.20;99.90;;;;;;5237342;28;20047;-74
2021/12/20 14:02:50;;;;;;;0.70;0.70;;;3.10;99.90;;;;;;5263635;28;19920;-73
2021/12/20 14:05:25;;;;;;;0.73;0.73;;;3.10;99.90;;;;;;5229221;28;20048;-73
2021/12/20 14:08:01;;;;;;;0.57;0.57;;;3.10;99.90;;;;;;5249731;28;20593;-75